Time;durP1;ratioP1;P1;durP2;ratioP2;P2;SDS_P1;SDS_P2;PMS_P1;PMS_P2;Temp;Humidity;BMP_temperature;BMP_pressure;BME280_temperature;BME280_humidity;BME280_pressure;Samples;Min_cycle;Max_cycle;Signal;HPM_P1;HPM_P2
2022/03/27 00:00:54;;;;;;;;;52.25;44.00;;;;;13.45;31.09;100357.69;5088558;28;8849;-73
2022/03/27 00:03:23;;;;;;;;;52.50;43.75;;;;;13.43;30.18;100367.28;5053370;28;8867;-72
2022/03/27 00:05:53;;;;;;;;;52.50;42.50;;;;;13.41;30.28;100362.94;5090263;28;8891;-72
2022/03/27 00:08:22;;;;;;;;;50.00;42.50;;;;;13.36;30.76;100357.66;5109050;28;8866;-74
2022/03/27 00:13:37;;;;;;;;;55.50;44.25;;;;;13.35;30.04;100357.69;5103515;28;8856;-73
2022/03/27 00:16:06;;;;;;;;;53.75;44.50;;;;;13.32;30.16;100357.69;5088413;28;8861;-75
2022/03/27 00:18:35;;;;;;;;;53.75;45.25;;;;;13.30;30.73;100356.78;5088489;28;8857;-71
2022/03/27 00:21:05;;;;;;;;;56.75;44.75;;;;;13.31;30.27;100356.81;5088374;28;8852;-72
2022/03/27 00:23:34;;;;;;;;;48.50;41.00;;;;;13.27;30.67;100355.03;5094281;28;8831;-72
2022/03/27 00:26:02;;;;;;;;;57.25;46.50;;;;;13.25;30.87;100356.75;5090436;28;9035;-72
2022/03/27 00:28:32;;;;;;;;;54.25;45.25;;;;;13.23;30.59;100351.53;5108906;28;8842;-72
2022/03/27 00:31:05;;;;;;;;;57.00;45.75;;;;;13.22;30.75;100352.38;5107601;28;8850;-73
2022/03/27 00:33:34;;;;;;;;;58.00;47.00;;;;;13.24;30.57;100357.63;5069256;28;8875;-72
2022/03/27 00:36:06;;;;;;;;;62.75;48.00;;;;;13.23;30.22;100345.41;5086802;28;8882;-72
2022/03/27 00:38:35;;;;;;;;;53.50;43.00;;;;;13.22;30.92;100359.38;5088229;28;8847;-72
2022/03/27 00:41:04;;;;;;;;;52.00;41.75;;;;;13.20;30.61;100356.75;5097650;28;8937;-71
2022/03/27 00:43:34;;;;;;;;;58.00;47.00;;;;;13.20;30.39;100356.75;5090486;28;8850;-72
2022/03/27 00:46:04;;;;;;;;;57.75;45.00;;;;;13.19;30.02;100367.22;5108459;28;8870;-71
2022/03/27 00:48:33;;;;;;;;;57.50;46.75;;;;;13.19;29.93;100367.22;5107336;28;8880;-72
2022/03/27 00:51:02;;;;;;;;;51.75;39.25;;;;;13.15;30.62;100366.34;5036434;28;8857;-72
2022/03/27 00:53:32;;;;;;;;;55.00;45.25;;;;;13.15;30.78;100370.72;5088214;28;8837;-71
2022/03/27 00:56:01;;;;;;;;;52.00;44.25;;;;;13.14;30.76;100372.47;5088563;28;8868;-71
2022/03/27 00:58:30;;;;;;;;;55.00;45.00;;;;;13.08;30.99;100367.22;5074518;28;8841;-72
2022/03/27 01:01:05;;;;;;;;;51.25;43.00;;;;;13.10;30.72;100364.56;5087886;28;8875;-71
2022/03/27 01:03:34;;;;;;;;;56.75;46.25;;;;;13.05;30.78;100369.81;5087944;28;8813;-72
2022/03/27 01:06:03;;;;;;;;;50.50;42.75;;;;;13.05;30.66;100360.22;5070164;28;8837;-72
2022/03/27 01:11:34;;;;;;;;;49.00;41.00;;;;;13.01;30.68;100371.53;5009246;28;8851;-71
2022/03/27 01:14:02;;;;;;;;;60.00;46.25;;;;;12.99;30.72;100377.66;5013590;28;8987;-72
2022/03/27 01:16:39;;;;;;;;;51.75;42.75;;;;;12.97;30.28;100377.66;4980506;28;9106;-71
2022/03/27 01:19:10;;;;;;;;;55.75;44.50;;;;;12.96;30.61;100375.88;5028995;28;8848;-73
2022/03/27 01:21:41;;;;;;;;;55.00;44.25;;;;;12.96;31.12;100377.63;5028962;28;8844;-72
2022/03/27 01:24:11;;;;;;;;;52.25;42.00;;;;;12.94;30.71;100375.00;5029128;28;8955;-72
2022/03/27 01:26:40;;;;;;;;;54.75;43.50;;;;;12.90;30.88;100378.50;5028886;28;8864;-74
2022/03/27 01:29:10;;;;;;;;;55.50;46.00;;;;;12.90;30.92;100377.63;5029027;28;8886;-72
2022/03/27 01:31:39;;;;;;;;;54.00;44.50;;;;;12.88;31.04;100375.00;5048028;28;8870;-73
2022/03/27 01:34:08;;;;;;;;;54.00;43.75;;;;;12.87;30.60;100375.84;5048703;28;8866;-71
2022/03/27 01:36:37;;;;;;;;;54.25;45.25;;;;;12.85;31.03;100375.88;5039385;28;8866;-71
2022/03/27 01:39:09;;;;;;;;;58.25;46.75;;;;;12.84;30.73;100374.09;5029018;28;8851;-71
2022/03/27 01:41:39;;;;;;;;;55.50;44.25;;;;;12.83;31.28;100379.34;5037680;28;8828;-72
2022/03/27 01:44:10;;;;;;;;;55.75;45.50;;;;;12.81;30.56;100378.47;5112006;28;8830;-71
2022/03/27 01:46:40;;;;;;;;;53.25;45.00;;;;;12.79;30.57;100375.81;5110462;28;8846;-71
2022/03/27 01:49:10;;;;;;;;;56.25;45.75;;;;;12.79;30.68;100372.34;5111805;28;8826;-72
2022/03/27 01:51:41;;;;;;;;;53.00;44.75;;;;;12.79;30.56;100372.34;5110522;28;8854;-72
2022/03/27 01:54:11;;;;;;;;;50.75;43.00;;;;;12.76;31.35;100378.44;5091457;28;8852;-71
2022/03/27 01:56:40;;;;;;;;;56.75;46.00;;;;;12.76;31.53;100374.94;5090990;28;8946;-72
2022/03/27 01:59:10;;;;;;;;;52.50;42.75;;;;;12.72;30.90;100381.94;5090962;28;9662;-71
2022/03/27 02:01:39;;;;;;;;;55.00;44.25;;;;;12.68;31.05;100373.19;5090675;28;8841;-72
2022/03/27 02:04:08;;;;;;;;;50.75;41.25;;;;;12.66;30.97;100372.31;5055988;28;8853;-70
2022/03/27 02:06:39;;;;;;;;;56.25;44.75;;;;;12.64;31.50;100374.03;5091279;28;8996;-72
2022/03/27 02:09:10;;;;;;;;;53.50;44.25;;;;;12.60;30.96;100369.66;5090840;28;8841;-72
2022/03/27 02:11:40;;;;;;;;;43.00;38.75;;;;;12.58;31.89;100365.28;5090721;28;9711;-72
2022/03/27 02:14:09;;;;;;;;;53.25;41.50;;;;;12.55;31.46;100370.50;5090690;28;8852;-73
2022/03/27 02:16:38;;;;;;;;;50.00;41.75;;;;;12.53;31.32;100369.63;5090971;28;8941;-71
2022/03/27 02:19:09;;;;;;;;;57.00;47.00;;;;;12.49;31.84;100371.34;5089034;28;8872;-72
2022/03/27 02:21:39;;;;;;;;;52.50;42.25;;;;;12.46;31.58;100369.59;5090596;28;8841;-72
2022/03/27 02:24:09;;;;;;;;;52.00;43.50;;;;;12.46;31.55;100376.56;5047815;28;8832;-72
2022/03/27 02:26:46;;;;;;;;;55.00;44.75;;;;;12.44;32.08;100365.22;5031054;28;8882;-72
2022/03/27 02:29:16;;;;;;;;;51.50;41.50;;;;;12.37;31.46;100372.16;5047884;28;10045;-72
2022/03/27 02:31:45;;;;;;;;;58.00;47.50;;;;;12.25;32.08;100372.09;5047514;28;8848;-71
2022/03/27 02:34:15;;;;;;;;;52.50;44.25;;;;;12.23;32.09;100374.69;5051967;28;9708;-72
2022/03/27 02:36:44;;;;;;;;;55.50;43.50;;;;;12.24;32.07;100371.19;5067743;28;8869;-72
2022/03/27 02:39:13;;;;;;;;;58.00;46.50;;;;;12.22;32.33;100370.31;5067311;28;8869;-72
2022/03/27 02:41:46;;;;;;;;;49.00;41.25;;;;;12.21;32.24;100370.31;5035186;28;8841;-72
2022/03/27 02:44:15;;;;;;;;;53.25;43.75;;;;;12.19;32.47;100367.72;5067580;28;8837;-72
2022/03/27 02:46:45;;;;;;;;;56.00;45.50;;;;;12.19;32.30;100372.03;5067430;28;8845;-72
2022/03/27 02:49:14;;;;;;;;;53.75;45.50;;;;;12.16;32.24;100372.91;5050801;28;8822;-72
2022/03/27 02:51:45;;;;;;;;;56.00;43.75;;;;;12.15;32.19;100376.38;5065584;28;8897;-72
2022/03/27 02:54:14;;;;;;;;;54.50;46.00;;;;;12.15;32.46;100383.34;5068638;28;8837;-71
2022/03/27 02:56:43;;;;;;;;;58.00;46.00;;;;;12.12;32.01;100380.69;5110145;28;9024;-72
2022/03/27 02:59:13;;;;;;;;;55.00;44.00;;;;;12.11;32.52;100385.06;5110270;28;8884;-72
2022/03/27 03:01:42;;;;;;;;;55.50;44.00;;;;;12.09;32.74;100382.44;5110168;28;8908;-71
2022/03/27 03:04:13;;;;;;;;;56.75;45.25;;;;;12.07;32.52;100388.53;5056577;28;9583;-71
2022/03/27 03:06:42;;;;;;;;;58.75;47.75;;;;;12.05;32.42;100385.03;5090963;28;8956;-72
2022/03/27 03:09:11;;;;;;;;;55.25;45.25;;;;;11.99;32.60;100379.78;5071170;28;8857;-72
2022/03/27 03:11:40;;;;;;;;;53.75;45.75;;;;;11.97;32.58;100387.59;5109840;28;8838;-72
2022/03/27 03:14:09;;;;;;;;;50.00;43.00;;;;;11.94;32.50;100390.16;5109739;28;9646;-71
2022/03/27 03:16:56;;;;;;;;;56.25;44.75;;;;;11.94;32.92;100387.56;5045102;28;8866;-72
2022/03/27 03:19:25;;;;;;;;;58.75;46.25;;;;;11.95;32.81;100388.47;5109680;28;8862;-71
2022/03/27 03:21:54;;;;;;;;;50.75;43.00;;;;;11.96;32.54;100395.41;5107105;28;8847;-73
2022/03/27 03:24:24;;;;;;;;;52.25;42.00;;;;;11.92;32.79;100394.53;5099327;28;8845;-71
2022/03/27 03:26:53;;;;;;;;;55.00;44.00;;;;;11.90;32.77;100397.13;5089107;28;8868;-71
2022/03/27 03:29:22;;;;;;;;;49.25;42.50;;;;;11.85;32.82;100393.56;5089027;28;8872;-72
2022/03/27 03:31:51;;;;;;;;;56.75;47.00;;;;;11.80;32.84;100394.41;5088900;28;8881;-74
2022/03/27 03:34:21;;;;;;;;;54.00;44.75;;;;;11.78;32.69;100386.53;5089316;28;8857;-72
2022/03/27 03:36:49;;;;;;;;;55.25;45.25;;;;;11.77;33.21;100400.47;5089179;28;8890;-72
2022/03/27 03:39:18;;;;;;;;;55.00;45.00;;;;;11.77;32.73;100397.84;5089110;28;8869;-71
2022/03/27 03:41:47;;;;;;;;;54.00;45.25;;;;;11.74;33.22;100405.69;5099977;28;8968;-71
2022/03/27 03:44:26;;;;;;;;;53.75;45.50;;;;;11.75;32.76;100401.31;5109274;28;8835;-72
2022/03/27 03:46:55;;;;;;;;;52.50;42.00;;;;;11.69;33.03;100400.41;5109066;28;8846;-73
2022/03/27 03:49:25;;;;;;;;;57.00;47.50;;;;;11.63;33.38;100402.97;5106308;28;8872;-72
2022/03/27 03:51:54;;;;;;;;;53.25;42.75;;;;;11.64;33.62;100398.59;5088659;28;8897;-73
2022/03/27 03:54:23;;;;;;;;;49.25;42.25;;;;;11.62;33.48;100402.94;5089174;28;8952;-71
2022/03/27 03:56:52;;;;;;;;;56.75;45.00;;;;;11.62;33.40;100398.59;5088296;28;8918;-72
2022/03/27 03:59:21;;;;;;;;;55.00;46.00;;;;;11.61;33.17;100406.44;5088574;28;8903;-73
2022/03/27 04:01:57;;;;;;;;;46.50;40.00;;;;;11.59;33.64;100401.19;5088524;28;8937;-72
2022/03/27 04:04:30;;;;;;;;;57.50;46.75;;;;;11.60;33.44;100410.75;5053287;28;8864;-72
2022/03/27 04:06:59;;;;;;;;;60.00;46.75;;;;;11.59;33.37;100416.00;5088643;28;8853;-72
2022/03/27 04:09:28;;;;;;;;;46.00;39.00;;;;;11.59;33.27;100413.38;5088507;28;8861;-72
2022/03/27 04:11:56;;;;;;;;;60.00;49.25;;;;;11.60;33.08;100413.38;5088676;28;8945;-72
2022/03/27 04:14:25;;;;;;;;;57.50;48.75;;;;;11.61;33.19;100414.28;5103867;28;9574;-72
2022/03/27 04:16:54;;;;;;;;;55.25;45.75;;;;;11.57;33.50;100409.84;5108651;28;8838;-70
2022/03/27 04:19:23;;;;;;;;;59.00;46.25;;;;;11.58;33.55;100419.47;5055768;28;9588;-72
2022/03/27 04:21:52;;;;;;;;;95.50;88.50;;;;;11.59;33.43;100414.25;5108650;28;8822;-71
2022/03/27 04:24:21;;;;;;;;;58.50;48.00;;;;;11.58;33.31;100422.94;5108886;28;11168;-73
2022/03/27 04:26:50;;;;;;;;;55.75;44.50;;;;;11.60;33.47;100425.56;5108747;28;8858;-71
2022/03/27 04:29:19;;;;;;;;;57.75;46.75;;;;;11.51;33.33;100429.84;5108757;28;8926;-72
2022/03/27 04:31:48;;;;;;;;;58.00;45.75;;;;;11.54;33.29;100433.34;5107415;28;8853;-73
2022/03/27 04:34:16;;;;;;;;;55.50;46.75;;;;;11.53;33.68;100437.72;5108533;28;8959;-72
2022/03/27 04:36:45;;;;;;;;;44.75;39.25;;;;;11.55;33.40;100433.38;5108558;28;8949;-72
2022/03/27 04:39:16;;;;;;;;;54.25;43.75;;;;;11.57;33.19;100435.97;5108479;28;8877;-71
2022/03/27 04:41:46;;;;;;;;;54.75;44.00;;;;;11.57;33.33;100434.25;5108736;28;8850;-72
2022/03/27 04:44:14;;;;;;;;;54.75;44.25;;;;;11.58;33.63;100440.34;5058295;28;8842;-72
2022/03/27 04:46:43;;;;;;;;;53.75;43.25;;;;;11.59;33.43;100443.00;5102728;28;8833;-72
2022/03/27 04:49:13;;;;;;;;;44.00;40.25;;;;;11.62;33.48;100442.13;5112712;28;8897;-74
2022/03/27 04:51:42;;;;;;;;;59.00;47.25;;;;;11.63;33.79;100441.28;5112596;28;8898;-72
2022/03/27 04:54:11;;;;;;;;;45.00;40.25;;;;;11.66;33.43;100449.13;5112545;28;8890;-72
2022/03/27 04:56:40;;;;;;;;;53.00;40.00;;;;;11.69;33.45;100436.97;5112324;28;8901;-72
2022/03/27 04:59:09;;;;;;;;;49.50;42.25;;;;;11.71;33.69;100442.22;5092190;28;8861;-70
2022/03/27 05:01:38;;;;;;;;;42.00;37.75;;;;;11.60;33.66;100446.47;5092258;28;8849;-72
2022/03/27 05:04:07;;;;;;;;;50.50;42.25;;;;;11.64;33.63;100451.72;5110844;28;9718;-71
2022/03/27 05:06:36;;;;;;;;;55.00;45.75;;;;;11.66;33.71;100460.47;5112193;28;8870;-73
2022/03/27 05:09:04;;;;;;;;;52.50;42.25;;;;;11.70;33.73;100464.88;5112249;28;8846;-73
2022/03/27 05:11:33;;;;;;;;;58.75;48.00;;;;;11.74;33.73;100468.38;5094224;28;8834;-72
2022/03/27 05:14:03;;;;;;;;;63.00;49.75;;;;;11.79;33.83;100469.28;5112133;28;8850;-72
2022/03/27 05:16:32;;;;;;;;;61.75;47.00;;;;;11.85;33.49;100471.97;5098014;28;8864;-71
2022/03/27 05:19:00;;;;;;;;;61.75;49.50;;;;;11.86;33.33;100471.09;5064385;28;8975;-72
2022/03/27 05:21:29;;;;;;;;;50.75;42.25;;;;;11.92;33.23;100477.28;5056349;28;8953;-72
2022/03/27 05:23:58;;;;;;;;;54.25;44.75;;;;;11.99;33.09;100481.72;5091873;28;8871;-71
2022/03/27 05:26:33;;;;;;;;;55.25;42.50;;;;;11.98;33.21;100482.56;5110184;28;8838;-72
2022/03/27 05:29:05;;;;;;;;;56.00;43.25;;;;;11.99;33.45;100481.72;5111773;28;8937;-72
2022/03/27 05:31:33;;;;;;;;;54.00;41.75;;;;;12.05;33.32;100482.63;5060099;28;8943;-72
2022/03/27 05:34:03;;;;;;;;;54.25;44.50;;;;;12.13;33.20;100485.31;5111775;28;8854;-71
2022/03/27 05:36:32;;;;;;;;;57.00;46.25;;;;;12.12;33.13;100493.13;5109441;27;8960;-72
2022/03/27 05:39:01;;;;;;;;;57.50;45.00;;;;;12.19;33.24;100487.09;5111913;28;8841;-72
2022/03/27 05:41:30;;;;;;;;;57.00;45.25;;;;;12.11;33.20;100480.94;5111992;28;9623;-72
2022/03/27 05:43:59;;;;;;;;;52.25;42.75;;;;;12.09;33.25;100480.91;5092690;28;8850;-72
2022/03/27 05:46:28;;;;;;;;;60.25;47.25;;;;;12.23;33.26;100486.25;5111561;28;8842;-73
2022/03/27 05:48:57;;;;;;;;;63.00;46.50;;;;;12.35;33.24;100488.09;5111647;28;8842;-73
2022/03/27 05:51:26;;;;;;;;;55.75;47.00;;;;;12.51;32.37;100495.19;5110483;28;8878;-73
2022/03/27 05:53:54;;;;;;;;;54.25;44.25;;;;;12.65;33.28;100490.06;5096364;28;8861;-73
2022/03/27 05:56:23;;;;;;;;;71.33;56.67;;;;;12.65;32.56;100493.53;5090540;28;8995;-73
2022/03/27 05:58:52;;;;;;;;;83.25;63.75;;;;;12.77;33.54;100490.09;5090667;28;9197;-72
2022/03/27 06:01:20;;;;;;;;;59.25;46.50;;;;;12.91;32.38;100489.31;5090903;28;9858;-73
2022/03/27 06:03:50;;;;;;;;;59.00;46.50;;;;;13.05;32.22;100488.50;5091124;28;8888;-73
2022/03/27 06:06:19;;;;;;;;;62.75;49.75;;;;;13.20;32.18;100492.94;5097335;28;8854;-72
2022/03/27 06:08:47;;;;;;;;;72.25;58.75;;;;;13.30;32.96;100498.22;5110940;28;8866;-72
2022/03/27 06:11:16;;;;;;;;;57.75;47.00;;;;;13.45;31.96;100508.78;5110919;28;9549;-71
2022/03/27 06:13:45;;;;;;;;;55.50;46.00;;;;;13.58;30.83;100517.56;5109930;28;8834;-72
2022/03/27 06:16:13;;;;;;;;;55.25;45.50;;;;;13.49;31.32;100518.41;5110120;28;8842;-73
2022/03/27 06:18:42;;;;;;;;;58.00;47.25;;;;;13.61;31.69;100522.78;5106651;28;8966;-73
2022/03/27 06:21:12;;;;;;;;;57.75;45.50;;;;;13.58;31.13;100530.66;5109299;28;8870;-73
2022/03/27 06:23:45;;;;;;;;;60.50;48.50;;;;;13.11;31.54;100532.19;5105411;28;8852;-73
2022/03/27 06:26:13;;;;;;;;;59.00;48.25;;;;;12.60;32.51;100541.47;5109594;28;8854;-73
2022/03/27 06:28:42;;;;;;;;;57.25;47.00;;;;;12.41;33.92;100537.84;5108652;28;8983;-72
2022/03/27 06:31:11;;;;;;;;;63.00;51.33;;;;;12.85;33.17;100542.50;5108757;28;8835;-74
2022/03/27 06:33:39;;;;;;;;;55.00;46.25;;;;;12.23;33.39;100547.28;5104462;28;8994;-72
2022/03/27 06:36:08;;;;;;;;;58.25;45.75;;;;;12.29;33.60;100543.84;5110480;28;8923;-72
2022/03/27 06:38:38;;;;;;;;;57.00;46.75;;;;;12.70;33.20;100535.44;5109918;28;8957;-72
2022/03/27 06:41:09;;;;;;;;;56.00;45.25;;;;;12.52;32.81;100544.03;5100605;28;8841;-73
2022/03/27 06:43:38;;;;;;;;;50.00;42.25;;;;;12.75;33.30;100541.56;5107358;28;8872;-74
2022/03/27 06:46:07;;;;;;;;;54.75;45.25;;;;;13.07;32.64;100540.91;5105195;28;8856;-72
2022/03/27 06:48:35;;;;;;;;;45.50;39.00;;;;;13.37;31.73;100534.09;5091052;28;8855;-72
2022/03/27 06:51:04;;;;;;;;;55.75;43.75;;;;;13.58;32.14;100533.28;5109940;28;8846;-73
2022/03/27 06:53:33;;;;;;;;;67.67;53.33;;;;;13.49;31.21;100538.50;5099106;28;8848;-74
2022/03/27 06:56:03;;;;;;;;;58.00;46.75;;;;;13.61;31.14;100531.56;5104966;28;9076;-73
2022/03/27 06:58:32;;;;;;;;;63.50;49.25;;;;;13.93;31.85;100541.25;5093664;28;10048;-72
2022/03/27 07:03:58;;;;;;;;;51.00;43.00;;;;;14.23;31.21;100552.63;5045443;28;8923;-73
2022/03/27 07:06:27;;;;;;;;;51.50;43.25;;;;;14.41;30.99;100555.25;5044726;28;8898;-72
2022/03/27 07:08:56;;;;;;;;;60.50;47.00;;;;;14.37;30.58;100553.53;5045785;28;8850;-72
2022/03/27 07:11:26;;;;;;;;;57.25;47.50;;;;;13.79;31.45;100561.31;4996866;28;8842;-71
2022/03/27 07:13:55;;;;;;;;;47.25;39.50;;;;;13.71;32.12;100563.91;5045552;28;8850;-71
2022/03/27 07:16:26;;;;;;;;;56.25;46.75;;;;;13.44;32.14;100569.94;5037762;28;8812;-71
2022/03/27 07:18:55;;;;;;;;;56.50;41.75;;;;;12.90;33.11;100568.72;5026198;28;8853;-71
2022/03/27 07:21:29;;;;;;;;;53.50;42.75;;;;;12.51;33.86;100572.78;5026481;28;8863;-72
2022/03/27 07:23:59;;;;;;;;;55.25;45.25;;;;;12.31;34.62;100559.56;5030945;28;8858;-72
2022/03/27 07:26:29;;;;;;;;;52.00;43.25;;;;;12.13;35.01;100561.13;5046160;28;8920;-72
2022/03/27 07:28:58;;;;;;;;;54.50;45.25;;;;;12.30;34.82;100563.91;5046337;28;8948;-73
2022/03/27 07:31:26;;;;;;;;;54.50;43.25;;;;;12.58;34.18;100565.00;5045334;28;8850;-73
2022/03/27 07:33:56;;;;;;;;;48.75;41.00;;;;;13.13;33.86;100558.38;5045983;28;8888;-72
2022/03/27 07:36:24;;;;;;;;;51.25;41.25;;;;;13.48;33.41;100560.31;5046319;28;8830;-73
2022/03/27 07:38:53;;;;;;;;;54.50;43.75;;;;;13.03;33.39;100568.81;5076557;28;8850;-72
2022/03/27 07:41:21;;;;;;;;;56.75;46.75;;;;;12.92;34.39;100567.00;5072757;28;8962;-72
2022/03/27 07:43:51;;;;;;;;;52.50;43.75;;;;;12.53;34.75;100558.84;5109075;28;8806;-70
2022/03/27 07:46:20;;;;;;;;;52.00;43.75;;;;;12.62;34.99;100566.78;5105942;28;8988;-73
2022/03/27 07:48:49;;;;;;;;;55.25;44.00;;;;;12.67;35.04;100570.31;5106765;28;8965;-71
2022/03/27 07:51:23;;;;;;;;;59.00;47.75;;;;;12.82;35.32;100558.22;5108560;28;9651;-72
2022/03/27 07:53:52;;;;;;;;;54.25;43.00;;;;;13.22;33.91;100564.53;5108507;28;8858;-73
2022/03/27 07:56:21;;;;;;;;;49.25;40.75;;;;;13.58;33.30;100564.75;5108716;28;8862;-72
2022/03/27 07:58:52;;;;;;;;;53.50;43.00;;;;;13.91;33.27;100568.31;5108296;28;8931;-70
2022/03/27 08:01:22;;;;;;;;;54.75;44.50;;;;;13.92;32.87;100573.56;5108446;28;8830;-72
2022/03/27 08:03:54;;;;;;;;;53.50;40.25;;;;;13.51;33.51;100578.69;5096808;28;8849;-72
2022/03/27 08:06:22;;;;;;;;;60.50;44.50;;;;;13.28;33.89;100584.66;5093086;28;9707;-72
2022/03/27 08:08:51;;;;;;;;;53.25;41.50;;;;;13.07;34.94;100575.81;5055189;28;9603;-73
2022/03/27 08:11:20;;;;;;;;;61.75;50.00;;;;;13.23;34.94;100592.50;5107573;28;9682;-73
2022/03/27 08:13:48;;;;;;;;;59.33;50.00;;;;;13.15;35.28;100586.31;5108050;28;8850;-73
2022/03/27 08:16:18;;;;;;;;;50.00;41.50;;;;;13.27;34.82;100583.78;5107758;28;8935;-73
2022/03/27 08:18:47;;;;;;;;;56.25;46.00;;;;;13.34;35.50;100586.47;5069055;28;8877;-73
2022/03/27 08:21:15;;;;;;;;;50.50;41.25;;;;;13.22;35.06;100577.63;5107857;28;8854;-74
2022/03/27 08:23:44;;;;;;;;;56.25;44.50;;;;;13.23;35.92;100582.03;5106917;28;8900;-73
2022/03/27 08:29:02;;;;;;;;;55.00;44.25;;;;;12.98;36.83;100582.72;5103912;28;8925;-74
2022/03/27 08:31:33;;;;;;;;;54.00;45.00;;;;;12.94;36.97;100580.97;5088209;28;8869;-71
2022/03/27 08:34:02;;;;;;;;;51.75;43.50;;;;;13.06;36.42;100588.88;5087859;28;8885;-73
2022/03/27 08:36:31;;;;;;;;;57.50;46.00;;;;;12.94;37.29;100579.22;5088334;28;8849;-72
2022/03/27 08:38:59;;;;;;;;;56.25;44.50;;;;;13.03;37.17;100575.78;5087617;28;8914;-75
2022/03/27 08:41:29;;;;;;;;;44.25;34.75;;;;;13.30;36.61;100579.44;5089159;28;8848;-77
2022/03/27 08:44:00;;;;;;;;;57.75;45.50;;;;;13.72;35.99;100575.25;5078025;28;8846;-76
2022/03/27 08:46:30;;;;;;;;;57.00;46.00;;;;;13.78;36.02;100580.50;5056684;28;8846;-76
2022/03/27 08:49:02;;;;;;;;;60.25;47.75;;;;;13.81;36.18;100581.41;5035426;28;8867;-76
2022/03/27 08:51:41;;;;;;;;;55.00;45.00;;;;;13.81;36.27;100591.88;5096350;28;8858;-75
2022/03/27 08:54:17;;;;;;;;;58.25;46.00;;;;;13.64;36.43;100586.59;5063188;28;8886;-75
2022/03/27 08:57:05;;;;;;;;;55.75;44.25;;;;;13.99;36.17;100588.44;5068769;28;8866;-76
2022/03/27 08:59:37;;;;;;;;;63.50;49.00;;;;;13.76;36.29;100596.25;5084577;28;8858;-75
2022/03/27 09:02:06;;;;;;;;;56.25;46.00;;;;;13.79;37.10;100592.75;5085100;28;8882;-75
2022/03/27 09:04:37;;;;;;;;;60.25;48.50;;;;;13.72;37.40;100584.00;5075860;28;9541;-74
2022/03/27 09:07:06;;;;;;;;;60.50;49.25;;;;;13.92;36.64;100584.06;5070565;28;9008;-75
2022/03/27 09:09:35;;;;;;;;;57.25;46.75;;;;;13.85;37.05;100584.91;5067599;28;8900;-75
2022/03/27 09:12:05;;;;;;;;;59.25;49.00;;;;;13.81;37.25;100588.41;5082325;28;8921;-75
2022/03/27 09:14:35;;;;;;;;;57.25;45.50;;;;;13.98;37.16;100596.31;5081131;28;8856;-74
2022/03/27 09:17:06;;;;;;;;;60.00;48.00;;;;;14.10;36.22;100582.34;5070842;28;8839;-77
2022/03/27 09:19:39;;;;;;;;;45.50;37.50;;;;;14.38;36.09;100578.00;5032606;28;8863;-75
2022/03/27 09:22:15;;;;;;;;;50.50;40.75;;;;;14.60;36.12;100571.03;5087252;28;8860;-74
2022/03/27 09:24:47;;;;;;;;;54.25;42.00;;;;;14.66;36.01;100584.16;5085832;28;8839;-74
2022/03/27 09:27:17;;;;;;;;;56.00;46.75;;;;;14.51;36.07;100577.13;5101314;28;8868;-76
2022/03/27 09:29:59;;;;;;;;;54.50;44.25;;;;;14.86;35.75;100565.78;5086407;28;8847;-76
2022/03/27 09:32:29;;;;;;;;;61.75;44.75;;;;;15.26;34.86;100568.28;5079384;28;8869;-76
2022/03/27 09:35:01;;;;;;;;;52.25;41.75;;;;;15.55;34.22;100565.53;5072208;28;8965;-77
2022/03/27 09:37:32;;;;;;;;;49.50;40.25;;;;;15.43;34.64;100568.25;5087713;28;8956;-76
2022/03/27 09:40:02;;;;;;;;;47.25;39.75;;;;;15.80;34.40;100570.72;5089476;28;8864;-75
2022/03/27 09:42:31;;;;;;;;;51.50;42.50;;;;;15.82;34.10;100565.44;5068416;28;8898;-75
2022/03/27 09:45:14;;;;;;;;;48.50;39.25;;;;;15.84;33.95;100569.84;5087773;28;8844;-76
2022/03/27 09:47:45;;;;;;;;;50.25;40.75;;;;;15.97;34.09;100579.41;5006987;28;8882;-78
2022/03/27 09:50:34;;;;;;;;;54.75;40.25;;;;;15.95;33.92;100578.53;5004602;28;8854;-77
2022/03/27 09:53:23;;;;;;;;;52.75;40.50;;;;;15.78;34.23;100575.09;4991335;28;8860;-74
2022/03/27 09:56:13;;;;;;;;;49.25;38.50;;;;;15.50;34.61;100577.84;4991009;28;8820;-77
2022/03/27 09:58:44;;;;;;;;;41.50;36.50;;;;;15.69;34.87;100576.00;5008156;28;8840;-75
2022/03/27 10:01:15;;;;;;;;;48.75;40.50;;;;;16.08;34.09;100574.06;4991776;28;8868;-73
2022/03/27 10:04:02;;;;;;;;;48.50;39.00;;;;;16.20;33.88;100564.31;5007628;28;9608;-74
2022/03/27 10:06:35;;;;;;;;;39.75;34.00;;;;;16.30;33.72;100569.53;4941557;28;8853;-75
2022/03/27 10:09:05;;;;;;;;;43.00;35.75;;;;;16.34;33.90;100573.88;4948663;28;8894;-74
2022/03/27 10:11:35;;;;;;;;;41.50;35.75;;;;;16.51;33.55;100575.50;4916720;28;8894;-74
2022/03/27 10:14:06;;;;;;;;;50.75;40.25;;;;;16.35;34.10;100582.63;4949011;28;8850;-75
2022/03/27 10:16:37;;;;;;;;;50.50;39.00;;;;;15.98;34.27;100582.91;4948184;28;8964;-75
2022/03/27 10:19:08;;;;;;;;;47.25;39.25;;;;;16.18;34.36;100577.47;4982211;28;8870;-74
2022/03/27 10:21:39;;;;;;;;;46.75;37.50;;;;;16.64;33.94;100574.50;5007945;28;9023;-75
2022/03/27 10:24:13;;;;;;;;;47.75;38.75;;;;;16.49;34.02;100575.50;5005878;28;8862;-75
2022/03/27 10:26:42;;;;;;;;;34.25;32.00;;;;;16.89;33.54;100571.69;5006977;28;9005;-75
2022/03/27 10:29:13;;;;;;;;;43.25;37.25;;;;;17.29;33.57;100569.47;4990909;28;9577;-73
2022/03/27 10:31:42;;;;;;;;;41.25;33.00;;;;;17.35;32.90;100573.78;5006759;28;8865;-72
2022/03/27 10:34:14;;;;;;;;;33.25;31.50;;;;;17.69;32.92;100568.09;5006415;28;8854;-73
2022/03/27 10:36:50;;;;;;;;;38.50;33.50;;;;;17.34;33.02;100574.72;4990868;28;8858;-76
2022/03/27 10:39:25;;;;;;;;;46.50;35.75;;;;;16.94;33.93;100577.78;4988680;28;8834;-73
2022/03/27 10:42:06;;;;;;;;;29.25;27.75;;;;;17.13;33.84;100573.19;4974048;28;8893;-75
2022/03/27 10:44:39;;;;;;;;;33.50;31.50;;;;;17.64;33.22;100580.50;5062818;28;8835;-75
2022/03/27 10:47:13;;;;;;;;;34.00;32.00;;;;;17.28;33.78;100582.69;5076817;28;8830;-74
2022/03/27 10:49:43;;;;;;;;;33.50;31.50;;;;;16.82;34.22;100588.38;5089508;28;9759;-73
2022/03/27 10:52:14;;;;;;;;;37.25;33.00;;;;;17.39;33.97;100578.16;5078805;28;8856;-74
2022/03/27 10:55:08;;;;;;;;;29.50;28.25;;;;;17.95;33.22;100570.41;5108173;28;8832;-76
2022/03/27 10:57:39;;;;;;;;;31.50;28.50;;;;;18.44;32.27;100560.88;5006646;28;8851;-75
2022/03/27 11:00:10;;;;;;;;;31.75;30.75;;;;;18.88;31.98;100562.78;4997943;28;8890;-74
2022/03/27 11:02:45;;;;;;;;;27.00;24.50;;;;;18.67;31.26;100571.03;4992950;28;9702;-74
2022/03/27 11:05:50;;;;;;;;;33.25;29.25;;;;;17.83;32.56;100567.94;4997829;28;8965;-75
2022/03/27 11:08:47;;;;;;;;;31.00;29.50;;;;;18.25;32.34;100565.59;4989545;28;8856;-74
2022/03/27 11:11:54;;;;;;;;;31.50;29.75;;;;;18.20;32.11;100560.34;4912749;29;9591;-75
2022/03/27 11:14:45;;;;;;;;;28.25;27.00;;;;;18.18;32.36;100569.22;4805309;29;8905;-76
2022/03/27 11:17:15;;;;;;;;;29.25;26.50;;;;;17.58;33.33;100565.63;4799203;29;8947;-74
2022/03/27 11:19:45;;;;;;;;;29.50;26.00;;;;;17.81;33.39;100562.69;4799363;29;8927;-75
2022/03/27 11:22:44;;;;;;;;;20.00;18.00;;;;;18.43;32.82;100557.38;4798774;29;8965;-73
2022/03/27 11:25:46;;;;;;;;;28.25;26.75;;;;;19.01;31.59;100552.81;4744748;30;9016;-73
2022/03/27 11:28:17;;;;;;;;;29.75;26.00;;;;;18.49;32.09;100565.19;4676203;30;8913;-74
2022/03/27 11:34:16;;;;;;;;;23.75;23.75;;;;;18.56;32.35;100542.16;4636936;30;9717;-76
2022/03/27 11:50:54;;;;;;;;;19.25;18.75;;;;;19.33;31.54;100538.09;4748939;29;9039;-79
2022/03/27 11:53:33;;;;;;;;;23.25;20.75;;;;;19.85;31.00;100522.91;4763231;30;9014;-77
2022/03/27 11:56:07;;;;;;;;;20.20;18.40;;;;;20.08;30.55;100521.50;4763162;30;8975;-78
2022/03/27 11:58:37;;;;;;;;;16.80;15.40;;;;;20.64;29.68;100519.19;4763529;30;8896;-78
2022/03/27 12:01:08;;;;;;;;;17.00;14.60;;;;;21.09;29.14;100505.59;4770718;29;9725;-78
2022/03/27 12:03:39;;;;;;;;;18.50;17.00;;;;;20.95;28.85;100515.75;4816818;29;9726;-79